This is the latest recevied weather packets stored in our database for station/object VY2CRA-4. If no packets are shown the sender has not sent any weather packets the latest 10 day(s).
| Time | Temp. | Humidity | Pressure | Rain* | Wind** | Luminosity | Snow |
|---|---|---|---|---|---|---|---|
| 1777441200 | 6.11° C | 53% | 1019.4 hPa | 0 mm | - | - | - |
| 1777439999 | 6.67° C | 52% | 1019.9 hPa | 0 mm | - | - | - |
| 1777438798 | 6.67° C | 52% | 1019.8 hPa | 0 mm | - | - | - |
| 1777436396 | 7.22° C | 51% | 1020.2 hPa | 0 mm | - | - | - |
| 1777435196 | 7.78° C | 50% | 1020.4 hPa | 0 mm | - | - | - |
| 1777433994 | 8.33° C | 49% | 1020.6 hPa | 0 mm | - | - | - |
| 1777432794 | 8.33° C | 47% | 1020.6 hPa | 0 mm | - | - | - |
| 1777431593 | 8.33° C | 46% | 1020.6 hPa | 0 mm | - | - | - |
| 1777430392 | 8.89° C | 44% | 1020.5 hPa | 0 mm | - | - | - |
| 1777429191 | 9.44° C | 42% | 1020.7 hPa | 0 mm | - | - | - |
| 1777427990 | 10° C | 39% | 1020.8 hPa | 0 mm | - | - | - |
| 1777426789 | 10.56° C | 36% | 1020.8 hPa | 0 mm | - | - | - |
| 1777425590 | 11.67° C | 34% | 1020.6 hPa | 0 mm | - | - | - |
| 1777424387 | 12.22° C | 31% | 1020.6 hPa | 0 mm | - | - | - |
| 1777423186 | 13.33° C | 28% | 1020.5 hPa | 0 mm | - | - | - |
| 1777421985 | 14.44° C | 25% | 1020.4 hPa | 0 mm | - | - | - |
| 1777420784 | 16.11° C | 22% | 1020.2 hPa | 0 mm | - | - | - |
| 1777418382 | 20° C | 13% | 1020.1 hPa | 0 mm | - | - | - |
| 1777417182 | 22.78° C | 8% | 1019.8 hPa | 0 mm | - | - | - |
| 1777415980 | 25.56° C | 4% | 1019.5 hPa | 0 mm | - | - | - |
| 1777414780 | 20.56° C | 14% | 1019.7 hPa | 0 mm | - | - | - |
| 1777413579 | 20.56° C | 15% | 1019.8 hPa | 0 mm | - | - | - |
| 1777412378 | 20.56° C | 14% | 1019.8 hPa | 0 mm | - | - | - |
| 1777411177 | 21.11° C | 13% | 1019.9 hPa | 0 mm | - | - | - |
| 1777409976 | 21.11° C | 12% | 1019.9 hPa | 0 mm | - | - | - |
* Rain since midnight (hover to see other rain measurements)
** Current wind speed in m/s (hover to see current wind gust speed)